createdAt,value
2022-10-31T00:01:01.898Z,12.07
2022-10-31T00:03:28.520Z,11.96
2022-10-31T00:05:55.184Z,11.73
2022-10-31T00:08:21.806Z,11.65
2022-10-31T00:10:48.480Z,11.54
2022-10-31T00:13:15.519Z,11.60
2022-10-31T00:15:42.396Z,11.53
2022-10-31T00:18:10.820Z,11.71
2022-10-31T00:20:38.929Z,11.75
2022-10-31T00:23:07.240Z,11.85
2022-10-31T00:25:36.896Z,11.92
2022-10-31T00:28:05.425Z,11.97
2022-10-31T00:30:32.154Z,11.84
2022-10-31T00:32:59.448Z,11.87
2022-10-31T00:35:26.391Z,11.97
2022-10-31T00:37:53.565Z,12.05
2022-10-31T00:40:20.406Z,12.06
2022-10-31T00:42:47.056Z,12.01
2022-10-31T00:45:14.013Z,12.00
2022-10-31T00:47:40.664Z,12.04
2022-10-31T00:50:08.149Z,12.01
2022-10-31T00:52:34.906Z,12.01
2022-10-31T00:55:02.435Z,11.93
2022-10-31T00:57:29.098Z,11.97
2022-10-31T00:59:55.775Z,11.98
2022-10-31T01:02:22.600Z,12.03
2022-10-31T01:04:49.500Z,12.05
2022-10-31T01:07:16.126Z,12.05
2022-10-31T01:09:44.929Z,11.98
2022-10-31T01:12:11.650Z,12.00
2022-10-31T01:14:44.193Z,11.98
2022-10-31T01:17:10.833Z,11.92
2022-10-31T01:19:37.523Z,11.97
2022-10-31T01:22:04.178Z,12.04
2022-10-31T01:24:30.841Z,12.00
2022-10-31T01:26:57.513Z,11.93
2022-10-31T01:29:24.210Z,11.98
2022-10-31T01:31:50.865Z,11.94
2022-10-31T01:34:18.288Z,11.93
2022-10-31T01:36:47.853Z,11.96
2022-10-31T01:39:16.425Z,12.02
2022-10-31T01:41:47.062Z,11.94
2022-10-31T01:44:16.968Z,12.00
2022-10-31T01:46:49.854Z,11.98
2022-10-31T01:49:43.509Z,11.84
2022-10-31T01:52:16.501Z,11.74
2022-10-31T01:54:48.472Z,11.80
2022-10-31T01:57:16.779Z,11.89
2022-10-31T01:59:48.568Z,11.91
2022-10-31T02:02:17.978Z,11.84
2022-10-31T02:04:47.036Z,11.99
2022-10-31T02:07:25.053Z,11.96
2022-10-31T02:09:54.042Z,11.98
2022-10-31T02:12:21.577Z,11.99
2022-10-31T02:14:48.560Z,11.94
2022-10-31T02:17:15.879Z,11.93
2022-10-31T02:20:13.322Z,11.94
2022-10-31T02:22:58.937Z,11.96
2022-10-31T02:25:40.768Z,11.95
2022-10-31T02:28:39.908Z,11.95
2022-10-31T02:31:19.780Z,11.88
2022-10-31T02:34:36.156Z,11.78
2022-10-31T02:37:14.605Z,11.69
2022-10-31T02:39:55.670Z,11.67
2022-10-31T02:42:47.666Z,11.65
2022-10-31T02:45:33.895Z,11.60
2022-10-31T02:48:04.362Z,11.59
2022-10-31T02:50:35.211Z,11.54
2022-10-31T02:53:03.304Z,11.56
2022-10-31T02:55:30.864Z,11.51
2022-10-31T02:58:11.667Z,11.48
2022-10-31T03:00:51.173Z,11.49
2022-10-31T03:03:39.051Z,11.57
2022-10-31T03:06:17.443Z,11.58
2022-10-31T03:09:00.499Z,11.55
2022-10-31T03:11:38.909Z,11.46
2022-10-31T03:14:13.584Z,11.34
2022-10-31T03:16:52.644Z,11.33
2022-10-31T03:19:31.672Z,11.26
2022-10-31T03:22:26.317Z,11.22
2022-10-31T03:24:54.916Z,11.13
2022-10-31T03:27:28.623Z,11.08
2022-10-31T03:30:00.560Z,11.11
2022-10-31T03:32:35.609Z,11.08
2022-10-31T03:35:08.693Z,11.13
2022-10-31T03:37:37.255Z,11.15
2022-10-31T03:40:08.044Z,11.14
2022-10-31T03:42:39.274Z,11.18
2022-10-31T03:45:09.194Z,11.22
2022-10-31T03:47:38.734Z,11.28
2022-10-31T03:50:11.682Z,11.29
2022-10-31T03:53:02.496Z,11.32
2022-10-31T03:55:55.529Z,11.32
2022-10-31T03:58:33.506Z,11.30
2022-10-31T04:01:03.412Z,11.24
2022-10-31T04:03:35.819Z,11.21
2022-10-31T04:06:10.325Z,11.18
2022-10-31T04:08:45.282Z,11.16
2022-10-31T04:11:19.246Z,11.07
2022-10-31T04:13:50.244Z,10.99
2022-10-31T04:16:24.829Z,11.01
2022-10-31T04:18:51.700Z,10.94
2022-10-31T04:21:18.533Z,10.88
2022-10-31T04:23:45.210Z,10.85
2022-10-31T04:26:19.188Z,10.79
2022-10-31T04:28:46.884Z,10.68
2022-10-31T04:31:14.218Z,10.60
2022-10-31T04:33:43.091Z,10.61
2022-10-31T04:36:10.395Z,10.61
2022-10-31T04:38:37.691Z,10.60
2022-10-31T04:41:12.060Z,10.55
2022-10-31T04:44:01.441Z,10.50
2022-10-31T04:46:28.278Z,10.45
2022-10-31T04:48:57.560Z,10.45
2022-10-31T04:51:24.668Z,10.42
2022-10-31T04:53:51.893Z,10.42
2022-10-31T04:56:38.550Z,10.40
2022-10-31T04:59:11.677Z,10.35
2022-10-31T05:01:52.019Z,10.29
2022-10-31T05:04:25.438Z,10.19
2022-10-31T05:06:53.553Z,10.15
2022-10-31T05:09:20.395Z,10.12
2022-10-31T05:11:47.147Z,10.12
2022-10-31T05:14:46.057Z,10.19
2022-10-31T05:17:35.403Z,10.20
2022-10-31T05:20:22.059Z,10.25
2022-10-31T05:23:03.911Z,10.24
2022-10-31T05:25:30.941Z,10.23
2022-10-31T05:27:58.877Z,10.19
2022-10-31T05:30:29.531Z,10.11
2022-10-31T05:32:56.512Z,10.02
2022-10-31T05:35:55.385Z,10.02
2022-10-31T05:38:34.390Z,10.02
2022-10-31T05:41:10.795Z,9.98
2022-10-31T05:43:39.339Z,9.97
2022-10-31T05:46:07.106Z,9.98
2022-10-31T05:49:00.205Z,9.98
2022-10-31T05:51:29.331Z,9.97
2022-10-31T05:53:56.134Z,10.02
2022-10-31T05:56:23.219Z,10.01
2022-10-31T05:58:49.896Z,10.01
2022-10-31T06:01:16.811Z,9.93
2022-10-31T06:03:45.613Z,9.87
2022-10-31T06:06:16.165Z,9.83
2022-10-31T06:08:42.858Z,9.78
2022-10-31T06:11:15.283Z,9.78
2022-10-31T06:14:05.723Z,9.78
2022-10-31T06:16:53.180Z,9.82
2022-10-31T06:19:52.075Z,9.86
2022-10-31T06:22:24.125Z,9.91
2022-10-31T06:24:50.833Z,9.88
2022-10-31T06:27:23.109Z,9.85
2022-10-31T06:29:49.800Z,9.86
2022-10-31T06:32:27.923Z,9.92
2022-10-31T06:34:54.581Z,10.03
2022-10-31T06:37:21.371Z,10.29
2022-10-31T06:39:50.188Z,10.43
2022-10-31T06:42:17.939Z,10.56
2022-10-31T06:44:44.702Z,10.49
2022-10-31T06:47:41.444Z,10.51
2022-10-31T06:50:17.708Z,10.80
2022-10-31T06:52:52.299Z,11.21
2022-10-31T06:55:21.689Z,11.64
2022-10-31T06:57:58.941Z,12.01
2022-10-31T07:00:31.561Z,12.30
2022-10-31T07:03:11.967Z,12.60
2022-10-31T07:05:38.783Z,12.86
2022-10-31T07:08:12.398Z,13.12
2022-10-31T07:10:41.522Z,13.33
2022-10-31T07:13:14.672Z,13.65
2022-10-31T07:15:49.328Z,13.90
2022-10-31T07:18:16.465Z,14.07
2022-10-31T07:20:43.243Z,14.27
2022-10-31T07:23:11.920Z,14.43
2022-10-31T07:25:40.198Z,14.66
2022-10-31T07:28:11.789Z,14.93
2022-10-31T07:30:39.662Z,15.19
2022-10-31T07:33:06.841Z,15.49
2022-10-31T07:35:56.497Z,15.82
2022-10-31T07:38:28.602Z,16.20
2022-10-31T07:40:55.403Z,16.55
2022-10-31T07:43:23.815Z,16.68
2022-10-31T07:46:19.451Z,16.64
2022-10-31T07:48:48.811Z,16.68
2022-10-31T07:51:33.958Z,16.75
2022-10-31T07:54:28.289Z,16.63
2022-10-31T07:56:54.929Z,16.69
2022-10-31T07:59:21.718Z,16.88
2022-10-31T08:01:48.623Z,17.11
2022-10-31T08:04:30.453Z,17.22
2022-10-31T08:07:15.412Z,17.25
2022-10-31T08:09:48.030Z,17.24
2022-10-31T08:12:25.676Z,17.11
2022-10-31T08:14:53.596Z,16.85
2022-10-31T08:17:20.892Z,16.65
2022-10-31T08:19:59.075Z,16.48
2022-10-31T08:22:30.959Z,16.37
2022-10-31T08:24:59.024Z,16.29
2022-10-31T08:27:25.793Z,16.23
2022-10-31T08:29:54.256Z,16.36
2022-10-31T08:32:23.225Z,16.54
2022-10-31T08:34:52.837Z,16.66
2022-10-31T08:37:28.578Z,16.91
2022-10-31T08:39:56.229Z,17.13
2022-10-31T08:42:22.859Z,17.24
2022-10-31T08:44:49.639Z,17.29
2022-10-31T08:47:20.897Z,17.25
2022-10-31T08:49:48.192Z,17.01
2022-10-31T08:52:15.986Z,16.96
2022-10-31T08:54:44.357Z,16.76
2022-10-31T08:57:49.384Z,16.71
2022-10-31T09:00:16.509Z,16.76
2022-10-31T09:03:03.722Z,16.62
2022-10-31T09:05:33.367Z,16.62
2022-10-31T09:08:01.890Z,16.64
2022-10-31T09:10:31.760Z,16.76
2022-10-31T09:13:13.483Z,16.77
2022-10-31T09:16:00.493Z,16.62
2022-10-31T09:18:32.882Z,16.67
2022-10-31T09:21:01.089Z,16.62
2022-10-31T09:23:30.268Z,16.69
2022-10-31T09:26:00.819Z,16.83
2022-10-31T09:28:37.169Z,16.79
2022-10-31T09:31:09.027Z,16.64
2022-10-31T09:33:55.819Z,16.63
2022-10-31T09:36:44.052Z,16.67
2022-10-31T09:39:18.177Z,16.62
2022-10-31T09:41:51.828Z,16.69
2022-10-31T09:45:03.748Z,16.91
2022-10-31T09:48:11.064Z,17.01
2022-10-31T09:50:54.988Z,16.91
2022-10-31T09:54:07.153Z,17.04
2022-10-31T09:56:35.847Z,17.01
2022-10-31T09:59:06.077Z,17.06
2022-10-31T10:01:46.753Z,17.11
2022-10-31T10:04:34.942Z,17.01
2022-10-31T10:07:23.871Z,16.92
2022-10-31T10:10:35.416Z,17.10
2022-10-31T10:13:36.044Z,17.07
2022-10-31T10:16:05.713Z,17.07
2022-10-31T10:18:56.686Z,17.13
2022-10-31T10:21:52.716Z,17.20
2022-10-31T10:24:48.633Z,17.29
2022-10-31T10:27:29.233Z,17.19
2022-10-31T10:30:12.214Z,17.20
2022-10-31T10:32:55.864Z,17.21
2022-10-31T10:35:37.408Z,17.19
2022-10-31T10:38:32.072Z,17.12
2022-10-31T10:41:00.834Z,17.03
2022-10-31T10:43:38.070Z,17.11
2022-10-31T10:46:42.337Z,17.28
2022-10-31T10:49:30.809Z,17.42
2022-10-31T10:52:42.188Z,17.59
2022-10-31T10:55:40.729Z,17.68
2022-10-31T10:58:09.473Z,17.74
2022-10-31T11:00:50.777Z,17.92
2022-10-31T11:03:18.999Z,17.81
2022-10-31T11:05:52.552Z,17.76
2022-10-31T11:08:35.434Z,17.79
2022-10-31T11:11:04.767Z,17.72
2022-10-31T11:13:33.917Z,17.71
2022-10-31T11:16:05.730Z,17.64
2022-10-31T11:18:35.982Z,17.57
2022-10-31T11:21:05.354Z,17.68
2022-10-31T11:23:33.482Z,17.72
2022-10-31T11:26:02.961Z,17.86
2022-10-31T11:28:31.491Z,17.99
2022-10-31T11:31:00.469Z,18.11
2022-10-31T11:33:53.510Z,18.33
2022-10-31T11:36:24.401Z,18.48
2022-10-31T11:38:52.473Z,18.83
2022-10-31T11:41:20.789Z,18.89
2022-10-31T11:43:51.960Z,18.82
2022-10-31T11:46:24.793Z,18.57
2022-10-31T11:48:55.563Z,18.61
2022-10-31T11:51:25.837Z,18.76
2022-10-31T11:53:56.981Z,18.86
2022-10-31T11:56:27.317Z,18.89
2022-10-31T11:59:06.778Z,19.08
2022-10-31T12:01:34.345Z,19.15
2022-10-31T12:04:08.699Z,19.00
2022-10-31T12:06:43.116Z,19.03
2022-10-31T12:09:19.158Z,19.03
2022-10-31T12:12:05.290Z,19.06
2022-10-31T12:15:05.895Z,18.64
2022-10-31T12:20:40.352Z,19.03
2022-10-31T12:23:16.248Z,19.08
2022-10-31T12:25:55.276Z,19.00
2022-10-31T12:28:55.953Z,19.11
2022-10-31T12:31:47.484Z,19.05
2022-10-31T12:34:17.131Z,18.92
2022-10-31T12:37:04.048Z,18.76
2022-10-31T12:39:48.887Z,18.55
2022-10-31T12:42:47.394Z,18.60
2022-10-31T12:45:38.116Z,18.53
2022-10-31T12:48:17.006Z,18.17
2022-10-31T12:51:04.837Z,17.99
2022-10-31T12:53:47.058Z,17.94
2022-10-31T12:56:30.735Z,18.00
2022-10-31T12:59:34.966Z,17.92
2022-10-31T13:02:17.177Z,17.87
2022-10-31T13:04:51.740Z,17.83
2022-10-31T13:07:29.785Z,17.77
2022-10-31T13:10:06.974Z,17.69
2022-10-31T13:12:37.519Z,17.65
2022-10-31T13:15:27.064Z,17.60
2022-10-31T13:18:15.858Z,17.58
2022-10-31T13:20:47.669Z,17.59
2022-10-31T13:26:30.188Z,17.48
2022-10-31T13:29:15.852Z,17.41
2022-10-31T13:31:43.329Z,17.28
2022-10-31T13:34:36.377Z,17.25
2022-10-31T13:37:18.234Z,17.23
2022-10-31T13:40:08.160Z,17.18
2022-10-31T13:42:56.427Z,16.99
2022-10-31T13:45:25.629Z,16.85
2022-10-31T13:48:19.653Z,16.80
2022-10-31T13:51:03.210Z,16.68
2022-10-31T13:53:43.796Z,16.66
2022-10-31T13:56:10.417Z,16.86
2022-10-31T13:58:37.594Z,16.89
2022-10-31T14:01:21.170Z,16.91
2022-10-31T14:04:07.759Z,16.82
2022-10-31T14:06:58.401Z,16.82
2022-10-31T14:09:34.153Z,16.71
2022-10-31T14:12:23.764Z,16.72
2022-10-31T14:14:55.747Z,16.68
2022-10-31T14:17:24.845Z,16.63
2022-10-31T14:20:23.115Z,16.59
2022-10-31T14:22:50.085Z,16.58
2022-10-31T14:25:27.066Z,16.59
2022-10-31T14:27:53.842Z,16.75
2022-10-31T14:30:23.922Z,16.82
2022-10-31T14:32:53.373Z,17.00
2022-10-31T14:35:22.037Z,16.94
2022-10-31T14:38:07.526Z,17.20
2022-10-31T14:40:55.987Z,17.13
2022-10-31T14:43:40.880Z,17.01
2022-10-31T14:46:46.564Z,16.92
2022-10-31T14:49:50.484Z,16.90
2022-10-31T14:52:19.783Z,16.91
2022-10-31T14:54:55.908Z,16.87
2022-10-31T14:57:37.386Z,16.88
2022-10-31T15:00:09.680Z,16.92
2022-10-31T15:03:07.507Z,16.91
2022-10-31T15:05:41.729Z,16.82
2022-10-31T15:08:15.154Z,16.69
2022-10-31T15:10:46.787Z,16.58
2022-10-31T15:13:22.608Z,16.48
2022-10-31T15:15:56.710Z,16.39
2022-10-31T15:18:27.169Z,16.29
2022-10-31T15:20:56.180Z,16.16
2022-10-31T15:23:26.472Z,16.06
2022-10-31T15:26:00.481Z,16.02
2022-10-31T15:28:27.718Z,16.05
2022-10-31T15:30:59.573Z,16.02
2022-10-31T15:33:33.643Z,15.97
2022-10-31T15:36:04.638Z,15.88
2022-10-31T15:38:31.704Z,15.75
2022-10-31T15:41:06.982Z,15.62
2022-10-31T15:43:40.852Z,15.40
2022-10-31T15:46:11.094Z,15.24
2022-10-31T15:48:39.417Z,15.18
2022-10-31T15:51:06.080Z,15.05
2022-10-31T15:53:37.364Z,15.03
2022-10-31T15:56:08.768Z,14.93
2022-10-31T15:58:44.790Z,14.89
2022-10-31T16:01:23.604Z,14.83
2022-10-31T16:04:04.349Z,14.77
2022-10-31T16:06:32.655Z,14.75
2022-10-31T16:08:59.519Z,14.75
2022-10-31T16:11:35.247Z,14.76
2022-10-31T16:14:23.114Z,14.76
2022-10-31T16:16:54.840Z,14.78
2022-10-31T16:19:28.950Z,14.77
2022-10-31T16:22:04.786Z,14.70
2022-10-31T16:24:39.854Z,14.64
2022-10-31T16:27:08.432Z,14.53
2022-10-31T16:29:42.270Z,14.43
2022-10-31T16:32:31.457Z,14.30
2022-10-31T16:35:02.763Z,14.15
2022-10-31T16:37:29.594Z,14.07
2022-10-31T16:39:56.322Z,14.03
2022-10-31T16:42:23.074Z,14.00
2022-10-31T16:44:50.100Z,13.96
2022-10-31T16:47:18.295Z,13.96
2022-10-31T16:49:48.681Z,13.86
2022-10-31T16:52:15.915Z,13.79
2022-10-31T16:54:42.556Z,13.77
2022-10-31T16:57:15.897Z,13.73
2022-10-31T16:59:42.977Z,13.67
2022-10-31T17:02:17.423Z,13.61
2022-10-31T17:04:44.940Z,13.52
2022-10-31T17:07:11.625Z,13.44
2022-10-31T17:09:38.260Z,13.40
2022-10-31T17:12:06.813Z,13.35
2022-10-31T17:14:34.662Z,13.25
2022-10-31T17:17:01.312Z,13.18
2022-10-31T17:19:27.937Z,13.04
2022-10-31T17:21:54.691Z,13.00
2022-10-31T17:24:21.332Z,12.96
2022-10-31T17:26:48.034Z,12.95
2022-10-31T17:29:15.228Z,12.97
2022-10-31T17:31:42.324Z,13.00
2022-10-31T17:34:09.501Z,12.96
2022-10-31T17:36:36.511Z,12.98
2022-10-31T17:39:05.598Z,12.93
2022-10-31T17:41:32.212Z,12.92
2022-10-31T17:43:59.836Z,12.88
2022-10-31T17:46:28.365Z,12.85
2022-10-31T17:48:55.034Z,12.77
2022-10-31T17:51:21.739Z,12.70
2022-10-31T17:53:48.480Z,12.69
2022-10-31T17:56:15.164Z,12.74
2022-10-31T17:58:41.916Z,12.77
2022-10-31T18:01:10.989Z,12.76
2022-10-31T18:03:38.638Z,12.69
2022-10-31T18:06:05.533Z,12.56
2022-10-31T18:08:34.449Z,12.49
2022-10-31T18:11:06.581Z,12.41
2022-10-31T18:13:33.165Z,12.31
2022-10-31T18:15:59.813Z,12.26
2022-10-31T18:18:26.775Z,12.08
2022-10-31T18:20:57.405Z,11.83
2022-10-31T18:23:24.085Z,11.69
2022-10-31T18:25:50.693Z,11.70
2022-10-31T18:28:17.336Z,11.68
2022-10-31T18:30:43.981Z,11.75
2022-10-31T18:33:10.667Z,11.77
2022-10-31T18:35:38.636Z,11.72
2022-10-31T18:38:06.830Z,11.64
2022-10-31T18:40:35.941Z,11.67
2022-10-31T18:43:03.610Z,11.88
2022-10-31T18:45:41.600Z,11.95
2022-10-31T18:48:14.530Z,11.99
2022-10-31T18:50:41.766Z,12.00
2022-10-31T18:53:08.883Z,11.97
2022-10-31T18:55:43.898Z,11.99
2022-10-31T18:58:14.146Z,12.06
2022-10-31T19:00:40.781Z,12.10
2022-10-31T19:03:07.555Z,12.10
2022-10-31T19:05:34.280Z,12.08
2022-10-31T19:08:00.952Z,12.10
2022-10-31T19:10:27.910Z,12.07
2022-10-31T19:12:54.580Z,12.03
2022-10-31T19:15:21.304Z,11.90
2022-10-31T19:17:47.998Z,11.80
2022-10-31T19:20:14.679Z,11.67
2022-10-31T19:22:41.324Z,11.57
2022-10-31T19:25:10.445Z,11.40
2022-10-31T19:27:38.155Z,11.30
2022-10-31T19:30:05.793Z,11.28
2022-10-31T19:32:32.729Z,11.24
2022-10-31T19:34:59.331Z,11.28
2022-10-31T19:37:26.094Z,11.33
2022-10-31T19:39:52.769Z,11.38
2022-10-31T19:42:19.736Z,11.44
2022-10-31T19:44:46.360Z,11.47
2022-10-31T19:47:13.052Z,11.46
2022-10-31T19:49:39.743Z,11.42
2022-10-31T19:52:06.435Z,11.44
2022-10-31T19:54:33.104Z,11.57
2022-10-31T19:56:59.748Z,11.77
2022-10-31T19:59:26.484Z,11.99
2022-10-31T20:01:53.243Z,12.12
2022-10-31T20:04:20.014Z,12.22
2022-10-31T20:06:46.894Z,12.30
2022-10-31T20:09:14.700Z,12.32
2022-10-31T20:11:43.548Z,12.34
2022-10-31T20:14:12.940Z,12.33
2022-10-31T20:16:40.005Z,12.38
2022-10-31T20:19:06.656Z,12.30
2022-10-31T20:21:37.556Z,12.39
2022-10-31T20:24:07.802Z,12.34
2022-10-31T20:26:36.851Z,12.35
2022-10-31T20:29:04.173Z,12.34
2022-10-31T20:31:33.973Z,12.27
2022-10-31T20:34:01.098Z,12.20
2022-10-31T20:36:29.625Z,12.07
2022-10-31T20:38:56.711Z,12.12
2022-10-31T20:41:23.385Z,12.11
2022-10-31T20:43:50.743Z,12.16
2022-10-31T20:46:20.523Z,12.12
2022-10-31T20:48:47.685Z,12.05
2022-10-31T20:51:17.296Z,12.05
2022-10-31T20:53:44.381Z,12.04
2022-10-31T20:56:14.094Z,12.10
2022-10-31T20:58:42.511Z,12.23
2022-10-31T21:01:33.864Z,12.29
2022-10-31T21:04:00.778Z,12.05
2022-10-31T21:06:28.309Z,11.73
2022-10-31T21:08:55.533Z,11.32
2022-10-31T21:11:25.229Z,11.26
2022-10-31T21:13:52.290Z,11.32
2022-10-31T21:16:21.836Z,11.37
2022-10-31T21:18:50.138Z,11.31
2022-10-31T21:21:32.191Z,11.37
2022-10-31T21:26:51.550Z,11.39
2022-10-31T21:29:19.667Z,11.42
2022-10-31T21:31:47.749Z,11.45
2022-10-31T21:34:15.223Z,11.48
2022-10-31T21:36:42.134Z,11.50
2022-10-31T21:39:09.871Z,11.63
2022-10-31T21:41:37.283Z,11.70
2022-10-31T21:44:04.578Z,11.71
2022-10-31T21:46:33.342Z,11.71
2022-10-31T21:49:03.056Z,11.76
2022-10-31T21:51:33.491Z,11.77
2022-10-31T21:54:19.672Z,11.83
2022-10-31T21:56:46.675Z,11.86
2022-10-31T21:59:13.709Z,11.77
2022-10-31T22:01:41.202Z,11.71
2022-10-31T22:04:07.954Z,11.64
2022-10-31T22:06:35.961Z,11.46
2022-10-31T22:09:05.503Z,11.45
2022-10-31T22:11:32.226Z,11.36
2022-10-31T22:14:00.369Z,11.42
2022-10-31T22:16:29.135Z,11.50
2022-10-31T22:18:58.393Z,11.55
2022-10-31T22:21:27.337Z,11.69
2022-10-31T22:23:56.780Z,11.81
2022-10-31T22:26:24.949Z,11.89
2022-10-31T22:28:54.117Z,11.86
2022-10-31T22:31:22.213Z,11.71
2022-10-31T22:33:50.447Z,11.63
2022-10-31T22:36:19.841Z,11.56
2022-10-31T22:38:47.657Z,11.50
2022-10-31T22:41:17.071Z,11.54
2022-10-31T22:43:44.289Z,11.59
2022-10-31T22:46:16.826Z,11.66
2022-10-31T22:48:49.245Z,11.68
2022-10-31T22:51:27.619Z,11.73
2022-10-31T22:53:56.815Z,11.77
2022-10-31T22:56:30.256Z,11.77
2022-10-31T22:58:58.529Z,11.74
2022-10-31T23:01:31.452Z,11.70
2022-10-31T23:03:58.837Z,11.68
2022-10-31T23:06:28.311Z,11.63
2022-10-31T23:08:55.251Z,11.54
2022-10-31T23:11:26.770Z,11.51
2022-10-31T23:14:14.409Z,11.32
2022-10-31T23:16:47.219Z,11.31
2022-10-31T23:19:28.050Z,11.22
2022-10-31T23:22:01.026Z,11.17
2022-10-31T23:24:39.457Z,11.15
2022-10-31T23:27:11.210Z,11.02
2022-10-31T23:29:48.582Z,10.97
2022-10-31T23:32:27.563Z,10.96
2022-10-31T23:34:56.752Z,10.99
2022-10-31T23:37:25.772Z,11.02
2022-10-31T23:39:53.005Z,11.11
2022-10-31T23:42:20.242Z,11.18
2022-10-31T23:44:47.224Z,11.33
2022-10-31T23:47:14.752Z,11.45
2022-10-31T23:49:41.556Z,11.45
2022-10-31T23:52:08.581Z,11.57
2022-10-31T23:54:35.876Z,11.48
2022-10-31T23:57:02.872Z,11.52
2022-10-31T23:59:29.732Z,11.39
